Time;durP1;ratioP1;P1;durP2;ratioP2;P2;SDS_P1;SDS_P2;PMS_P1;PMS_P2;Temp;Humidity;BMP_temperature;BMP_pressure;BME280_temperature;BME280_humidity;BME280_pressure;Samples;Min_cycle;Max_cycle;Signal;HPM_P1;HPM_P2
2023/07/22 00:01:25;;;;;;;5.70;3.50;;;12.50;99.90;;;;;;5026081;28;20083;-80
2023/07/22 00:03:51;;;;;;;9.73;3.45;;;12.60;99.90;;;;;;5030818;28;20048;-79
2023/07/22 00:06:16;;;;;;;6.55;3.30;;;12.50;99.90;;;;;;5045872;28;20045;-80
2023/07/22 00:08:42;;;;;;;7.70;3.58;;;12.60;99.90;;;;;;4997629;28;20171;-80
2023/07/22 00:11:08;;;;;;;7.00;3.60;;;12.50;99.90;;;;;;5041232;28;20037;-79
2023/07/22 00:13:34;;;;;;;8.75;4.00;;;12.50;99.90;;;;;;5026549;28;20045;-79
2023/07/22 00:16:00;;;;;;;8.02;3.45;;;12.40;99.90;;;;;;5014738;28;20034;-79
2023/07/22 00:18:30;;;;;;;8.52;4.25;;;12.40;99.90;;;;;;5025620;28;20056;-80
2023/07/22 00:20:57;;;;;;;7.72;3.80;;;12.30;99.90;;;;;;5019584;28;20058;-79
2023/07/22 00:23:22;;;;;;;7.05;3.85;;;12.30;99.90;;;;;;5026186;28;20045;-79
2023/07/22 00:25:49;;;;;;;9.27;4.30;;;12.30;99.90;;;;;;5013401;28;20045;-80
2023/07/22 00:28:15;;;;;;;9.20;3.65;;;12.20;99.90;;;;;;5030926;28;20041;-78
2023/07/22 00:30:41;;;;;;;7.40;3.85;;;12.30;99.90;;;;;;5011762;28;20042;-79
2023/07/22 00:33:07;;;;;;;7.50;3.55;;;12.20;99.90;;;;;;5011962;28;20379;-79
2023/07/22 00:35:33;;;;;;;9.32;4.15;;;12.20;99.90;;;;;;5011860;28;20587;-80
2023/07/22 00:38:00;;;;;;;7.60;3.83;;;12.10;99.90;;;;;;5023888;28;20053;-81
2023/07/22 00:40:26;;;;;;;7.88;3.60;;;12.00;99.90;;;;;;5015656;28;20081;-80
2023/07/22 00:42:52;;;;;;;5.15;3.65;;;12.00;99.90;;;;;;5014004;28;20042;-80
2023/07/22 00:45:18;;;;;;;6.95;3.92;;;11.80;99.90;;;;;;5000798;28;20119;-80
2023/07/22 00:47:45;;;;;;;7.05;4.28;;;11.80;99.90;;;;;;5011698;28;20057;-80
2023/07/22 00:50:11;;;;;;;7.35;3.70;;;11.70;99.90;;;;;;5011146;28;20041;-81
2023/07/22 00:52:37;;;;;;;6.50;3.35;;;11.70;99.90;;;;;;5025814;28;20393;-81
2023/07/22 00:55:04;;;;;;;6.97;3.90;;;11.60;99.90;;;;;;5026446;28;20080;-81
2023/07/22 00:57:31;;;;;;;9.52;4.47;;;11.60;99.90;;;;;;4989913;28;1107992;-81
2023/07/22 00:59:56;;;;;;;8.35;4.18;;;11.60;99.90;;;;;;5015076;28;20478;-80
2023/07/22 01:02:23;;;;;;;8.73;4.65;;;11.50;99.90;;;;;;5011491;28;20048;-80
2023/07/22 01:04:51;;;;;;;7.68;3.92;;;11.50;99.90;;;;;;5012625;28;20078;-80
2023/07/22 01:07:17;;;;;;;9.90;4.60;;;11.50;99.90;;;;;;5012851;28;20116;-81
2023/07/22 01:09:43;;;;;;;6.75;3.70;;;11.50;99.90;;;;;;5006274;28;20179;-81
2023/07/22 01:12:10;;;;;;;8.35;4.30;;;11.50;99.90;;;;;;5031318;28;20078;-81
2023/07/22 01:14:37;;;;;;;11.05;4.70;;;11.50;99.90;;;;;;5031143;28;20041;-80
2023/07/22 01:17:05;;;;;;;10.73;4.65;;;11.50;99.90;;;;;;5030963;28;20068;-81
2023/07/22 01:19:31;;;;;;;8.82;4.57;;;11.40;99.90;;;;;;5024597;28;20100;-81
2023/07/22 01:22:02;;;;;;;8.95;4.00;;;11.40;99.90;;;;;;5023074;28;20040;-81
2023/07/22 01:24:31;;;;;;;9.45;4.63;;;11.40;99.90;;;;;;5013428;28;20041;-81
2023/07/22 01:26:58;;;;;;;8.90;4.82;;;11.30;99.90;;;;;;5021601;28;20119;-80
2023/07/22 01:29:24;;;;;;;8.23;4.00;;;11.30;99.90;;;;;;5034343;28;20048;-81
2023/07/22 01:31:52;;;;;;;11.88;4.75;;;11.20;99.90;;;;;;5019745;28;20058;-80
2023/07/22 01:34:18;;;;;;;9.20;4.68;;;11.20;99.90;;;;;;5018676;28;20378;-80
2023/07/22 01:36:45;;;;;;;8.40;4.47;;;11.20;99.90;;;;;;5022593;28;20045;-80
2023/07/22 01:39:11;;;;;;;9.23;4.95;;;11.20;99.90;;;;;;5035571;28;20041;-81
2023/07/22 01:41:37;;;;;;;8.88;4.15;;;11.20;99.90;;;;;;5035716;28;20509;-81
2023/07/22 01:44:03;;;;;;;9.07;4.18;;;11.20;99.90;;;;;;5050910;28;20123;-80
2023/07/22 01:46:29;;;;;;;7.22;4.13;;;11.20;99.90;;;;;;5050854;28;20056;-80
2023/07/22 01:48:55;;;;;;;8.63;4.20;;;11.20;99.90;;;;;;5042280;28;20077;-81
2023/07/22 01:51:21;;;;;;;8.15;4.72;;;11.20;99.90;;;;;;5035430;28;20053;-81
2023/07/22 01:53:47;;;;;;;11.25;5.03;;;11.20;99.90;;;;;;5034237;28;20382;-81
2023/07/22 01:56:13;;;;;;;8.77;4.53;;;11.20;99.90;;;;;;5034391;28;20437;-82
2023/07/22 01:58:39;;;;;;;7.82;4.45;;;11.20;99.90;;;;;;5016826;28;20112;-81
2023/07/22 02:01:04;;;;;;;7.85;3.58;;;11.20;99.90;;;;;;5033781;28;20045;-81
2023/07/22 02:03:31;;;;;;;10.43;4.07;;;11.20;99.90;;;;;;5042207;28;20033;-81
2023/07/22 02:06:06;;;;;;;8.48;4.70;;;11.10;99.90;;;;;;5031372;28;20035;-81
2023/07/22 02:08:32;;;;;;;8.32;4.00;;;11.10;99.90;;;;;;5014218;28;20041;-81
2023/07/22 02:11:06;;;;;;;9.27;4.65;;;11.20;99.90;;;;;;5014394;28;20129;-81
2023/07/22 02:13:33;;;;;;;7.00;4.25;;;11.20;99.90;;;;;;5032124;28;20081;-80
2023/07/22 02:15:59;;;;;;;8.20;4.68;;;11.20;99.90;;;;;;5017152;28;20116;-80
2023/07/22 02:18:25;;;;;;;8.65;4.55;;;11.10;99.90;;;;;;5030452;28;20489;-80
2023/07/22 02:20:51;;;;;;;9.75;4.15;;;11.10;99.90;;;;;;5031535;28;20038;-80
2023/07/22 02:23:18;;;;;;;7.75;4.05;;;11.20;99.90;;;;;;5018448;28;20050;-82
2023/07/22 02:25:44;;;;;;;7.50;4.00;;;11.10;99.90;;;;;;5013543;28;20052;-82
2023/07/22 02:28:10;;;;;;;7.32;4.03;;;11.10;99.90;;;;;;5024008;28;20452;-82
2023/07/22 02:30:38;;;;;;;6.63;3.80;;;11.10;99.90;;;;;;5014730;28;20510;-82
2023/07/22 02:33:05;;;;;;;8.50;4.38;;;11.20;99.90;;;;;;5025898;28;20133;-82
2023/07/22 02:35:31;;;;;;;9.95;4.20;;;11.20;99.90;;;;;;5033184;28;20037;-81
2023/07/22 02:37:57;;;;;;;8.93;4.22;;;11.20;99.90;;;;;;5032349;28;20099;-82
2023/07/22 02:40:22;;;;;;;9.35;4.38;;;11.20;99.90;;;;;;5012646;28;20383;-82
2023/07/22 02:42:48;;;;;;;9.52;5.22;;;11.10;99.90;;;;;;5014580;28;20078;-82
2023/07/22 02:45:14;;;;;;;10.13;4.30;;;11.20;99.90;;;;;;5013613;28;20470;-82
2023/07/22 02:47:39;;;;;;;8.50;4.90;;;11.20;99.90;;;;;;5009887;28;20355;-82
2023/07/22 02:50:09;;;;;;;9.40;4.57;;;11.10;99.90;;;;;;5032476;28;20041;-81
2023/07/22 02:52:35;;;;;;;7.80;4.18;;;11.20;99.90;;;;;;5033337;28;20049;-80
2023/07/22 02:55:12;;;;;;;8.57;4.28;;;11.10;99.90;;;;;;5049917;28;20435;-80
2023/07/22 02:57:39;;;;;;;7.50;4.10;;;11.10;99.90;;;;;;5020115;28;20050;-80
2023/07/22 03:00:07;;;;;;;11.25;5.18;;;11.00;99.90;;;;;;5018161;28;20104;-79
2023/07/22 03:02:36;;;;;;;10.10;5.03;;;11.00;99.90;;;;;;5017652;28;20363;-79
2023/07/22 03:05:07;;;;;;;9.77;4.75;;;10.90;99.90;;;;;;5013142;28;20076;-79
2023/07/22 03:07:34;;;;;;;9.02;4.43;;;11.00;99.90;;;;;;5017022;28;20483;-80
2023/07/22 03:10:00;;;;;;;12.32;5.35;;;11.00;99.90;;;;;;5027944;28;20116;-79
2023/07/22 03:12:27;;;;;;;10.07;4.93;;;11.00;99.90;;;;;;5033722;28;20048;-80
2023/07/22 03:14:53;;;;;;;10.73;5.15;;;11.10;99.90;;;;;;5049356;28;20050;-79
2023/07/22 03:17:19;;;;;;;10.90;5.72;;;11.10;99.90;;;;;;5043160;28;20057;-80
2023/07/22 03:19:45;;;;;;;9.52;4.90;;;11.10;99.90;;;;;;5016731;28;20510;-78
2023/07/22 03:22:14;;;;;;;11.35;5.43;;;11.20;99.90;;;;;;5012772;28;20053;-79
2023/07/22 03:24:39;;;;;;;9.90;5.55;;;11.20;99.90;;;;;;5010389;28;20120;-80
2023/07/22 03:27:06;;;;;;;11.63;5.60;;;11.20;99.90;;;;;;5029366;28;20167;-79
2023/07/22 03:29:32;;;;;;;11.07;5.30;;;11.20;99.90;;;;;;5032215;28;20045;-79
2023/07/22 03:31:59;;;;;;;10.48;5.60;;;11.20;99.90;;;;;;5030512;28;20053;-79
2023/07/22 03:34:26;;;;;;;12.50;5.90;;;11.30;99.90;;;;;;5014136;28;20080;-79
2023/07/22 03:36:52;;;;;;;12.32;5.68;;;11.30;99.90;;;;;;5032238;28;20033;-80
2023/07/22 03:39:18;;;;;;;11.73;5.88;;;11.30;99.90;;;;;;5031843;28;20497;-78
2023/07/22 03:41:43;;;;;;;11.55;5.90;;;11.30;99.90;;;;;;5033443;28;20041;-78
2023/07/22 03:44:09;;;;;;;12.30;5.95;;;11.30;99.90;;;;;;5033342;28;20041;-79
2023/07/22 03:46:35;;;;;;;13.95;6.38;;;11.40;99.90;;;;;;5032145;28;20458;-80
2023/07/22 03:49:00;;;;;;;12.43;6.30;;;11.40;99.90;;;;;;5032923;28;20045;-80
2023/07/22 03:51:26;;;;;;;11.32;5.88;;;11.40;99.90;;;;;;5031360;28;20045;-79
2023/07/22 03:53:52;;;;;;;13.27;6.28;;;11.50;99.90;;;;;;5044228;28;20096;-79
2023/07/22 03:56:17;;;;;;;13.57;6.75;;;11.50;99.90;;;;;;5012336;28;20052;-79
2023/07/22 03:58:43;;;;;;;12.05;6.28;;;11.60;99.90;;;;;;5011531;28;20050;-80
2023/07/22 04:01:11;;;;;;;12.52;5.90;;;11.60;99.90;;;;;;5012065;28;20046;-81
2023/07/22 04:03:36;;;;;;;12.18;5.60;;;11.70;99.90;;;;;;5012066;28;20049;-78
2023/07/22 04:06:02;;;;;;;10.68;5.43;;;11.70;99.90;;;;;;5011901;28;20149;-80
2023/07/22 04:08:28;;;;;;;12.32;5.93;;;11.80;99.90;;;;;;5012695;28;20048;-80
2023/07/22 04:10:55;;;;;;;10.85;6.05;;;11.70;99.90;;;;;;5020729;28;20049;-78
2023/07/22 04:13:22;;;;;;;12.55;5.60;;;11.70;99.90;;;;;;5026458;28;20104;-80
2023/07/22 04:15:48;;;;;;;11.55;5.70;;;11.80;99.90;;;;;;5012324;28;20048;-79
2023/07/22 04:18:19;;;;;;;10.88;5.70;;;11.80;99.90;;;;;;5012815;28;20038;-78
2023/07/22 04:20:45;;;;;;;10.38;5.72;;;11.90;99.90;;;;;;5012159;28;20483;-78
2023/07/22 04:23:12;;;;;;;11.95;5.95;;;11.90;99.90;;;;;;5011559;28;20041;-78
2023/07/22 04:25:41;;;;;;;12.13;5.93;;;12.00;99.90;;;;;;5011904;28;20165;-80
2023/07/22 04:28:08;;;;;;;11.65;6.15;;;12.00;99.90;;;;;;5014026;28;20096;-80
2023/07/22 04:30:34;;;;;;;12.73;6.30;;;12.10;99.90;;;;;;5013082;28;20057;-79
2023/07/22 04:33:00;;;;;;;11.30;5.68;;;12.10;99.90;;;;;;5015826;28;20045;-79
2023/07/22 04:35:25;;;;;;;13.10;5.95;;;12.20;99.90;;;;;;5032719;28;20372;-79
2023/07/22 04:37:51;;;;;;;12.00;5.82;;;12.30;99.90;;;;;;5028058;28;20088;-80
2023/07/22 04:40:18;;;;;;;12.15;5.95;;;12.30;99.90;;;;;;5016622;28;20073;-78
2023/07/22 04:42:44;;;;;;;13.48;7.00;;;12.30;99.90;;;;;;5042231;28;20046;-78
2023/07/22 04:45:11;;;;;;;11.68;6.78;;;12.40;99.90;;;;;;5011935;28;20052;-77
2023/07/22 04:47:38;;;;;;;13.40;6.28;;;12.40;99.90;;;;;;5012950;28;20049;-77
2023/07/22 04:50:09;;;;;;;11.77;6.45;;;12.50;99.90;;;;;;5019945;28;20096;-76
2023/07/22 04:52:35;;;;;;;11.70;5.70;;;12.50;99.90;;;;;;5024579;28;20056;-77
2023/07/22 04:55:08;;;;;;;12.93;5.97;;;12.60;99.90;;;;;;5032715;28;20163;-77
2023/07/22 04:57:41;;;;;;;13.40;6.20;;;12.60;99.90;;;;;;5047547;28;20136;-76
2023/07/22 05:00:11;;;;;;;11.27;5.78;;;12.70;99.90;;;;;;5034650;28;20383;-79
2023/07/22 05:02:38;;;;;;;10.38;5.40;;;12.70;99.90;;;;;;5036655;28;20053;-78
2023/07/22 05:05:04;;;;;;;10.93;5.93;;;12.80;99.90;;;;;;5036253;28;20167;-78
2023/07/22 05:07:30;;;;;;;10.15;5.85;;;12.80;99.90;;;;;;5029276;28;20466;-79
2023/07/22 05:09:55;;;;;;;12.68;5.60;;;12.80;99.90;;;;;;5017337;28;20046;-79
2023/07/22 05:12:21;;;;;;;9.85;5.03;;;12.80;99.90;;;;;;5015053;28;20042;-78
2023/07/22 05:14:48;;;;;;;11.52;5.47;;;12.80;99.90;;;;;;5030055;28;20056;-79
2023/07/22 05:17:13;;;;;;;10.38;5.40;;;12.80;99.90;;;;;;5034868;28;20057;-78
2023/07/22 05:19:42;;;;;;;10.10;5.53;;;12.90;99.90;;;;;;5035630;28;20048;-77
2023/07/22 05:22:07;;;;;;;10.35;5.03;;;12.90;99.90;;;;;;5035791;28;20044;-79
2023/07/22 05:24:33;;;;;;;10.48;5.28;;;12.90;99.90;;;;;;5018156;28;20045;-81
2023/07/22 05:26:59;;;;;;;10.25;5.78;;;12.90;99.90;;;;;;5025551;28;20041;-77
2023/07/22 05:29:25;;;;;;;11.32;5.60;;;13.00;99.90;;;;;;5014960;28;20083;-79
2023/07/22 05:31:51;;;;;;;12.02;5.68;;;13.00;99.90;;;;;;5019528;28;20049;-77
2023/07/22 05:34:16;;;;;;;9.63;5.45;;;13.00;99.90;;;;;;5018202;28;20052;-77
2023/07/22 05:36:42;;;;;;;10.75;5.50;;;13.00;99.90;;;;;;5033459;28;20041;-77
2023/07/22 05:39:08;;;;;;;10.50;5.53;;;13.00;99.90;;;;;;5025544;28;20434;-77
2023/07/22 05:41:34;;;;;;;10.43;5.50;;;13.10;99.90;;;;;;5023433;28;20045;-77
2023/07/22 05:44:00;;;;;;;11.27;5.38;;;13.10;99.90;;;;;;5014730;28;20038;-77
2023/07/22 05:46:25;;;;;;;12.05;6.18;;;13.10;99.90;;;;;;5026024;28;20459;-77
2023/07/22 05:48:51;;;;;;;11.45;5.28;;;13.10;99.90;;;;;;5009432;28;20389;-76
2023/07/22 05:51:17;;;;;;;9.98;5.35;;;13.20;99.90;;;;;;5029836;28;20091;-76
2023/07/22 05:53:43;;;;;;;10.50;5.50;;;13.20;99.90;;;;;;5035618;28;20195;-77
2023/07/22 05:56:09;;;;;;;9.80;5.43;;;13.20;99.90;;;;;;5019908;28;20161;-76
2023/07/22 05:58:35;;;;;;;9.35;5.10;;;13.20;99.90;;;;;;5012405;28;20421;-77
2023/07/22 06:01:01;;;;;;;11.32;5.13;;;13.20;99.90;;;;;;5033923;28;20482;-77
2023/07/22 06:03:26;;;;;;;11.25;5.13;;;13.20;99.90;;;;;;5027124;28;20045;-77
2023/07/22 06:05:52;;;;;;;11.63;5.38;;;13.20;99.90;;;;;;5029266;28;20081;-77
2023/07/22 06:08:18;;;;;;;11.88;5.72;;;13.20;99.90;;;;;;5029498;28;20055;-77
2023/07/22 06:10:44;;;;;;;11.52;5.60;;;13.30;99.90;;;;;;5034257;28;20059;-77
2023/07/22 06:13:10;;;;;;;9.73;5.43;;;13.30;99.90;;;;;;5022121;28;20386;-80
2023/07/22 06:15:35;;;;;;;9.85;5.35;;;13.30;99.90;;;;;;5017910;28;20037;-77
2023/07/22 06:18:01;;;;;;;11.27;5.28;;;13.40;99.90;;;;;;5026480;28;20464;-78
2023/07/22 06:20:28;;;;;;;11.18;5.45;;;13.40;99.90;;;;;;5014439;28;20045;-78
2023/07/22 06:22:54;;;;;;;10.15;5.90;;;13.50;99.90;;;;;;5017841;28;20041;-77
2023/07/22 06:25:20;;;;;;;10.23;5.50;;;13.50;99.90;;;;;;5021666;28;20061;-78
2023/07/22 06:27:46;;;;;;;14.25;6.57;;;13.60;99.90;;;;;;5024572;28;20116;-77
2023/07/22 06:30:12;;;;;;;11.60;6.22;;;13.60;99.90;;;;;;5017272;28;20057;-76
2023/07/22 06:32:38;;;;;;;14.98;7.13;;;13.70;99.90;;;;;;5049926;28;20545;-80
2023/07/22 06:35:04;;;;;;;10.90;5.60;;;13.70;99.90;;;;;;5034256;28;20046;-79
2023/07/22 06:37:30;;;;;;;11.52;6.30;;;13.70;99.90;;;;;;5049890;28;20482;-78
2023/07/22 06:39:56;;;;;;;10.23;6.07;;;13.70;99.90;;;;;;5003666;28;20156;-77
2023/07/22 06:42:22;;;;;;;13.68;6.97;;;13.80;99.90;;;;;;5030404;28;20041;-74
2023/07/22 06:44:48;;;;;;;11.38;6.43;;;13.80;99.90;;;;;;5016594;28;20038;-74
2023/07/22 06:47:14;;;;;;;12.10;6.68;;;13.90;99.90;;;;;;5014504;28;20044;-74
2023/07/22 06:49:43;;;;;;;13.20;7.47;;;14.00;99.90;;;;;;5027853;28;20056;-75
2023/07/22 06:52:09;;;;;;;13.68;7.43;;;14.10;99.90;;;;;;5015051;28;20034;-75
2023/07/22 06:54:35;;;;;;;15.75;8.65;;;14.20;99.90;;;;;;5014424;28;20121;-75
2023/07/22 06:57:01;;;;;;;15.65;8.45;;;14.20;99.90;;;;;;5014034;28;20038;-78
2023/07/22 06:59:27;;;;;;;13.52;7.60;;;14.30;99.90;;;;;;5014321;28;20052;-75
2023/07/22 07:01:53;;;;;;;11.95;8.00;;;14.30;99.90;;;;;;5014061;28;20045;-75
2023/07/22 07:04:19;;;;;;;14.30;8.57;;;14.30;99.90;;;;;;5014212;28;20092;-75
2023/07/22 07:06:45;;;;;;;16.85;8.85;;;14.30;99.90;;;;;;5013811;28;20038;-74
2023/07/22 07:09:11;;;;;;;16.25;8.98;;;14.40;99.90;;;;;;5014442;28;20491;-74
2023/07/22 07:11:37;;;;;;;14.07;9.05;;;14.50;99.90;;;;;;5024397;28;20081;-75
2023/07/22 07:14:03;;;;;;;17.33;9.35;;;14.50;99.90;;;;;;5026534;28;20112;-76
2023/07/22 07:16:31;;;;;;;16.60;9.15;;;14.50;99.90;;;;;;5033776;28;20041;-75
2023/07/22 07:18:59;;;;;;;15.88;8.98;;;14.60;99.90;;;;;;5032371;28;20049;-74
2023/07/22 07:21:24;;;;;;;16.75;9.45;;;14.60;99.90;;;;;;5015654;28;20052;-73
2023/07/22 07:23:51;;;;;;;15.20;8.27;;;14.70;99.90;;;;;;5020716;28;20046;-74
2023/07/22 07:26:17;;;;;;;15.52;8.98;;;14.70;99.90;;;;;;5014165;28;20069;-75
2023/07/22 07:28:43;;;;;;;16.80;9.38;;;14.70;99.90;;;;;;5030835;28;20050;-74
2023/07/22 07:31:09;;;;;;;15.05;8.75;;;14.90;99.90;;;;;;5033216;28;20381;-74
2023/07/22 07:33:35;;;;;;;14.57;8.40;;;15.00;99.90;;;;;;5017035;28;20056;-75
2023/07/22 07:36:01;;;;;;;14.80;7.80;;;15.10;99.90;;;;;;5017229;28;20073;-74
2023/07/22 07:38:28;;;;;;;14.35;8.25;;;15.10;99.90;;;;;;5016222;28;20477;-74
2023/07/22 07:41:03;;;;;;;13.85;7.85;;;15.10;99.90;;;;;;5020970;28;20049;-73
2023/07/22 07:43:29;;;;;;;16.17;8.60;;;15.20;99.90;;;;;;5015791;28;20049;-75
2023/07/22 07:46:27;;;;;;;14.52;8.07;;;15.20;99.90;;;;;;5013251;28;20049;-74
2023/07/22 07:48:56;;;;;;;14.55;7.80;;;15.20;99.90;;;;;;5012901;28;20506;-73
2023/07/22 07:51:24;;;;;;;15.10;8.13;;;15.30;99.90;;;;;;5019817;28;20044;-75
2023/07/22 07:53:51;;;;;;;14.48;8.30;;;15.40;99.90;;;;;;5013736;28;20431;-74
2023/07/22 07:56:17;;;;;;;15.23;8.07;;;15.40;99.90;;;;;;5013383;28;20348;-74
2023/07/22 07:58:44;;;;;;;14.52;8.57;;;15.50;99.90;;;;;;5012985;28;20065;-75
2023/07/22 08:01:10;;;;;;;14.02;8.65;;;15.60;99.90;;;;;;5019364;28;20436;-74
2023/07/22 08:03:36;;;;;;;15.85;9.23;;;15.60;99.90;;;;;;5019861;28;20045;-72
2023/07/22 08:06:03;;;;;;;15.15;9.07;;;15.70;99.90;;;;;;5033409;28;20391;-71
2023/07/22 08:08:29;;;;;;;14.60;9.13;;;15.80;99.90;;;;;;5020240;28;20114;-73
2023/07/22 08:11:09;;;;;;;14.25;8.48;;;16.00;99.90;;;;;;5021443;28;20109;-73
2023/07/22 08:13:36;;;;;;;13.93;8.75;;;16.00;99.90;;;;;;5021720;28;20046;-73
2023/07/22 08:16:07;;;;;;;12.98;7.50;;;16.10;99.90;;;;;;5025402;28;20491;-71
2023/07/22 08:18:34;;;;;;;14.10;8.18;;;16.10;99.90;;;;;;5022371;28;20356;-71
2023/07/22 08:21:00;;;;;;;15.35;7.88;;;16.20;99.90;;;;;;5021316;28;20052;-74
2023/07/22 08:23:26;;;;;;;11.93;7.85;;;16.50;99.90;;;;;;5011423;28;20042;-72
2023/07/22 08:25:52;;;;;;;12.93;6.85;;;16.50;99.90;;;;;;5020725;28;20446;-72
2023/07/22 08:28:18;;;;;;;11.10;7.32;;;16.60;99.90;;;;;;5021852;28;20044;-73
2023/07/22 08:30:44;;;;;;;11.15;7.03;;;16.70;99.90;;;;;;5021111;28;20418;-72
2023/07/22 08:33:13;;;;;;;12.98;7.30;;;16.80;99.90;;;;;;5025580;28;20049;-72
2023/07/22 08:35:39;;;;;;;12.25;7.63;;;16.90;99.90;;;;;;5022336;28;20064;-72
2023/07/22 08:38:06;;;;;;;11.13;6.35;;;17.00;99.90;;;;;;5037831;28;20037;-71
2023/07/22 08:40:40;;;;;;;9.85;6.68;;;17.10;99.90;;;;;;5022572;28;20370;-72
2023/07/22 08:43:09;;;;;;;14.07;8.15;;;17.10;99.90;;;;;;5024868;28;20037;-72
2023/07/22 08:45:36;;;;;;;10.20;6.60;;;17.10;99.90;;;;;;5029979;28;20482;-75
2023/07/22 08:48:07;;;;;;;13.25;6.50;;;17.10;99.90;;;;;;5015470;28;20046;-73
2023/07/22 08:50:46;;;;;;;10.73;6.50;;;17.20;99.90;;;;;;5016995;28;20101;-76
2023/07/22 08:53:15;;;;;;;9.93;6.53;;;17.30;99.90;;;;;;5048241;28;20069;-73
2023/07/22 08:55:42;;;;;;;10.23;6.50;;;17.40;99.90;;;;;;5033740;28;20157;-78
2023/07/22 08:58:11;;;;;;;10.48;5.43;;;17.50;99.90;;;;;;5034815;28;20057;-73
2023/07/22 09:00:39;;;;;;;8.63;5.35;;;17.60;99.90;;;;;;5049747;28;20103;-74
2023/07/22 09:03:05;;;;;;;10.20;6.15;;;17.70;99.90;;;;;;5033263;28;20378;-71
2023/07/22 09:05:33;;;;;;;8.43;5.28;;;17.70;99.90;;;;;;5032463;28;20066;-72
2023/07/22 09:08:01;;;;;;;8.10;5.32;;;17.80;99.90;;;;;;5021224;28;20033;-72
2023/07/22 09:10:28;;;;;;;7.20;4.32;;;17.90;99.90;;;;;;5023415;28;20041;-72
2023/07/22 09:12:54;;;;;;;7.35;4.25;;;17.90;99.90;;;;;;5025908;28;20107;-72
2023/07/22 09:15:20;;;;;;;5.97;4.07;;;17.70;99.90;;;;;;5032750;28;20047;-70
2023/07/22 09:17:47;;;;;;;6.57;3.97;;;17.70;99.90;;;;;;5032810;28;20038;-71
2023/07/22 09:20:14;;;;;;;7.70;4.40;;;17.60;99.90;;;;;;5032206;28;20049;-71
2023/07/22 09:22:48;;;;;;;7.60;4.40;;;17.60;99.90;;;;;;5034413;28;20409;-73
2023/07/22 09:25:14;;;;;;;6.57;4.32;;;17.60;99.90;;;;;;5034486;28;20099;-74
2023/07/22 09:27:41;;;;;;;8.45;4.63;;;17.70;99.90;;;;;;5016242;28;20337;-73
2023/07/22 09:30:27;;;;;;;5.65;3.95;;;17.70;99.90;;;;;;5034051;28;20034;-73
2023/07/22 09:32:55;;;;;;;7.75;4.05;;;17.70;99.90;;;;;;5032579;28;20049;-72
2023/07/22 09:35:21;;;;;;;6.88;4.07;;;17.70;99.90;;;;;;5034227;28;20119;-73
2023/07/22 09:37:47;;;;;;;6.55;4.05;;;17.60;99.90;;;;;;5034053;28;20072;-73
2023/07/22 09:40:24;;;;;;;6.72;3.72;;;17.60;99.90;;;;;;5033913;28;20037;-75
2023/07/22 09:42:55;;;;;;;8.50;4.50;;;17.40;99.90;;;;;;5049307;28;20111;-75
2023/07/22 09:45:25;;;;;;;6.75;4.30;;;17.20;99.90;;;;;;5016409;28;20041;-74
2023/07/22 09:47:52;;;;;;;8.15;4.28;;;17.00;99.90;;;;;;5033877;28;20382;-75
2023/07/22 09:50:26;;;;;;;8.52;4.68;;;16.70;99.90;;;;;;5033050;28;20068;-73
2023/07/22 09:52:53;;;;;;;9.95;5.05;;;16.50;99.90;;;;;;5050103;28;20381;-74
2023/07/22 09:55:24;;;;;;;10.05;5.18;;;16.10;99.90;;;;;;5049855;28;20359;-74
2023/07/22 09:57:53;;;;;;;7.50;4.35;;;15.70;99.90;;;;;;5034141;28;20065;-74
2023/07/22 10:00:19;;;;;;;9.80;5.18;;;15.30;99.90;;;;;;5033749;28;20116;-76
2023/07/22 10:02:49;;;;;;;10.77;5.40;;;15.00;99.90;;;;;;5033520;28;20379;-73
2023/07/22 10:05:17;;;;;;;7.88;4.43;;;14.80;99.90;;;;;;5031864;28;20458;-76
2023/07/22 10:07:54;;;;;;;6.65;3.78;;;14.70;99.90;;;;;;5033248;28;20047;-76
2023/07/22 10:10:34;;;;;;;7.47;3.40;;;14.60;99.90;;;;;;5033397;28;20041;-77
2023/07/22 10:13:01;;;;;;;5.05;2.92;;;14.50;99.90;;;;;;5032234;28;20405;-72
2023/07/22 10:15:30;;;;;;;6.15;2.78;;;14.40;99.90;;;;;;5032265;28;20053;-75
2023/07/22 10:17:56;;;;;;;4.10;2.80;;;14.30;99.90;;;;;;5033447;28;20076;-73
2023/07/22 10:20:24;;;;;;;5.43;3.08;;;14.30;99.90;;;;;;5031519;28;20072;-72
2023/07/22 10:22:50;;;;;;;6.18;3.30;;;14.40;99.90;;;;;;5033338;28;20052;-73
2023/07/22 10:25:18;;;;;;;7.35;3.60;;;14.40;99.90;;;;;;5033231;28;20121;-73
2023/07/22 10:27:44;;;;;;;10.45;3.90;;;14.40;99.90;;;;;;5033007;28;20046;-72
2023/07/22 10:30:12;;;;;;;6.47;3.40;;;14.50;99.90;;;;;;5032610;28;20470;-73
2023/07/22 10:32:46;;;;;;;6.90;3.63;;;14.50;99.90;;;;;;5032679;28;20110;-75
2023/07/22 10:35:17;;;;;;;6.22;3.42;;;14.60;99.90;;;;;;5031985;28;20045;-71
2023/07/22 10:37:45;;;;;;;5.63;3.38;;;14.60;99.90;;;;;;5033442;28;20080;-79
2023/07/22 10:40:30;;;;;;;5.47;3.30;;;14.80;99.90;;;;;;5032797;28;20459;-79
2023/07/22 10:43:03;;;;;;;6.15;3.10;;;14.80;99.90;;;;;;5031595;28;20041;-79
2023/07/22 10:45:31;;;;;;;8.32;3.40;;;14.80;99.90;;;;;;5031996;28;20033;-79
2023/07/22 10:48:10;;;;;;;6.15;4.20;;;14.90;99.90;;;;;;5031426;28;20037;-78
2023/07/22 10:50:47;;;;;;;6.68;4.00;;;15.00;99.90;;;;;;5032379;28;20033;-79
2023/07/22 10:53:14;;;;;;;6.05;4.18;;;15.10;99.90;;;;;;5032731;28;20436;-79
2023/07/22 10:56:14;;;;;;;7.47;4.13;;;15.10;99.90;;;;;;5031669;28;20077;-79
2023/07/22 10:58:46;;;;;;;7.07;4.25;;;15.10;99.90;;;;;;5030995;28;20132;-78
2023/07/22 11:01:30;;;;;;;6.97;4.40;;;15.00;99.90;;;;;;5030988;28;20045;-79
2023/07/22 11:04:16;;;;;;;6.68;3.97;;;15.10;99.90;;;;;;5031002;28;20048;-79
2023/07/22 11:06:48;;;;;;;7.88;4.93;;;15.20;99.90;;;;;;5032339;28;20033;-73
2023/07/22 11:12:16;;;;;;;7.45;4.60;;;15.30;99.90;;;;;;5031086;28;20061;-74
2023/07/22 11:15:02;;;;;;;6.68;4.38;;;15.40;99.90;;;;;;5032190;28;20356;-74
2023/07/22 11:17:30;;;;;;;8.90;4.70;;;15.40;99.90;;;;;;5011555;28;20052;-74
2023/07/22 11:19:57;;;;;;;8.73;4.75;;;15.50;99.90;;;;;;5029107;28;20046;-74
2023/07/22 11:22:22;;;;;;;8.48;5.00;;;15.60;99.90;;;;;;5032109;28;20362;-75
2023/07/22 11:24:48;;;;;;;7.32;5.55;;;15.50;99.90;;;;;;5047324;28;20037;-77
2023/07/22 11:27:15;;;;;;;8.13;4.75;;;15.50;99.90;;;;;;5047192;28;20128;-75
2023/07/22 11:29:41;;;;;;;7.53;4.50;;;15.50;99.90;;;;;;5030676;28;20053;-74
2023/07/22 11:32:15;;;;;;;9.27;5.15;;;15.50;99.90;;;;;;5031770;28;20049;-77
2023/07/22 11:34:41;;;;;;;9.23;4.78;;;15.60;99.90;;;;;;5012638;28;20095;-77
2023/07/22 11:37:07;;;;;;;23.25;6.85;;;15.50;99.90;;;;;;5030439;28;20077;-82
2023/07/22 11:39:32;;;;;;;11.75;5.85;;;15.50;99.90;;;;;;5014505;28;20048;-80
2023/07/22 11:42:01;;;;;;;9.95;5.13;;;15.50;99.90;;;;;;5030645;28;20046;-79
2023/07/22 11:44:28;;;;;;;10.68;5.57;;;15.40;99.90;;;;;;5031849;28;20052;-81
2023/07/22 11:46:56;;;;;;;7.93;4.95;;;15.40;99.90;;;;;;5047066;28;20046;-80
2023/07/22 11:49:47;;;;;;;9.60;5.75;;;15.40;99.90;;;;;;5029266;28;20038;-80
2023/07/22 11:52:19;;;;;;;9.13;5.43;;;15.40;99.90;;;;;;5031367;28;20125;-81
2023/07/22 11:54:46;;;;;;;10.15;6.43;;;15.40;99.90;;;;;;5031416;28;20053;-74
2023/07/22 11:57:22;;;;;;;7.03;4.80;;;15.30;99.90;;;;;;5029713;28;20124;-73
2023/07/22 11:59:52;;;;;;;9.10;4.68;;;15.20;99.90;;;;;;5032598;28;20525;-78
2023/07/22 12:02:26;;;;;;;7.00;4.75;;;15.10;99.90;;;;;;5031499;28;20103;-72
2023/07/22 12:04:53;;;;;;;6.05;4.70;;;15.00;99.90;;;;;;5032339;28;20045;-73
2023/07/22 12:07:27;;;;;;;8.52;5.25;;;15.00;99.90;;;;;;5031582;28;20462;-74
2023/07/22 12:09:55;;;;;;;6.88;4.95;;;15.00;99.90;;;;;;5031307;28;20041;-75
2023/07/22 12:12:20;;;;;;;9.02;4.97;;;15.10;99.90;;;;;;5031328;28;20084;-74
2023/07/22 12:14:46;;;;;;;8.15;5.07;;;15.10;99.90;;;;;;5031147;28;20661;-77
2023/07/22 12:17:12;;;;;;;7.88;5.30;;;15.20;99.90;;;;;;5030290;28;20037;-74
2023/07/22 12:19:38;;;;;;;7.70;4.88;;;15.20;99.90;;;;;;5032219;28;20121;-73
2023/07/22 12:22:03;;;;;;;10.05;6.00;;;15.30;99.90;;;;;;5031159;28;20049;-74
2023/07/22 12:24:30;;;;;;;7.63;5.45;;;15.30;99.90;;;;;;5031168;28;20489;-80
2023/07/22 12:26:55;;;;;;;7.72;4.82;;;15.30;99.90;;;;;;5030837;28;20072;-77
2023/07/22 12:29:22;;;;;;;8.00;4.70;;;15.20;99.90;;;;;;5032009;28;20130;-77
2023/07/22 12:31:48;;;;;;;7.70;4.95;;;15.10;99.90;;;;;;5032312;28;20046;-78
2023/07/22 12:34:13;;;;;;;7.75;4.82;;;15.20;99.90;;;;;;5030728;28;20045;-79
2023/07/22 12:36:40;;;;;;;6.78;4.60;;;15.20;99.90;;;;;;5032485;28;20048;-75
2023/07/22 12:39:06;;;;;;;8.15;4.40;;;15.20;99.90;;;;;;5032668;28;20037;-76
2023/07/22 12:41:32;;;;;;;7.22;5.18;;;15.20;99.90;;;;;;5032007;28;20168;-75
2023/07/22 12:43:58;;;;;;;5.85;4.15;;;15.10;99.90;;;;;;5032439;28;20363;-75
2023/07/22 12:46:23;;;;;;;5.80;4.32;;;15.20;99.90;;;;;;5032210;28;20053;-74
2023/07/22 12:48:49;;;;;;;6.68;4.47;;;15.10;99.90;;;;;;5032236;28;20103;-79